createdAt,value
2023-01-22T00:00:24.477Z,11.43
2023-01-22T00:02:53.680Z,10.50
2023-01-22T00:05:21.880Z,11.43
2023-01-22T00:07:49.699Z,10.97
2023-01-22T00:10:18.012Z,10.53
2023-01-22T00:12:45.992Z,11.27
2023-01-22T00:15:13.817Z,11.13
2023-01-22T00:17:41.618Z,10.87
2023-01-22T00:20:13.332Z,10.20
2023-01-22T00:22:41.171Z,10.90
2023-01-22T00:25:11.387Z,10.60
2023-01-22T00:27:40.468Z,11.80
2023-01-22T00:30:09.775Z,11.53
2023-01-22T00:32:37.612Z,10.10
2023-01-22T00:35:06.042Z,10.30
2023-01-22T00:37:35.187Z,10.50
2023-01-22T00:40:02.993Z,11.57
2023-01-22T00:42:30.860Z,10.70
2023-01-22T00:44:59.708Z,10.17
2023-01-22T00:47:27.600Z,10.60
2023-01-22T00:49:55.387Z,10.83
2023-01-22T00:52:23.180Z,10.10
2023-01-22T00:54:52.341Z,10.33
2023-01-22T00:57:21.885Z,9.63
2023-01-22T00:59:49.817Z,9.60
2023-01-22T01:02:17.953Z,10.17
2023-01-22T01:04:45.817Z,9.93
2023-01-22T01:07:13.674Z,9.83
2023-01-22T01:09:41.473Z,10.40
2023-01-22T01:12:10.619Z,9.53
2023-01-22T01:14:38.413Z,10.33
2023-01-22T01:17:06.710Z,10.13
2023-01-22T01:19:34.661Z,10.90
2023-01-22T01:22:02.447Z,10.37
2023-01-22T01:24:30.363Z,9.80
2023-01-22T01:26:58.196Z,12.07
2023-01-22T01:29:27.426Z,9.60
2023-01-22T01:31:55.472Z,10.00
2023-01-22T01:34:23.470Z,12.07
2023-01-22T01:36:51.291Z,10.00
2023-01-22T01:39:19.468Z,10.50
2023-01-22T01:41:47.345Z,10.87
2023-01-22T01:44:17.314Z,10.77
2023-01-22T01:46:50.632Z,10.60
2023-01-22T01:49:26.780Z,10.35
2023-01-22T01:51:58.833Z,11.23
2023-01-22T01:54:27.572Z,10.80
2023-01-22T01:56:59.455Z,10.83
2023-01-22T01:59:28.423Z,10.20
2023-01-22T02:01:58.065Z,10.20
2023-01-22T02:04:26.494Z,11.43
2023-01-22T02:06:54.326Z,11.27
2023-01-22T02:09:22.341Z,10.70
2023-01-22T02:11:52.436Z,10.00
2023-01-22T02:14:25.099Z,10.30
2023-01-22T02:17:02.570Z,10.37
2023-01-22T02:19:30.360Z,10.50
2023-01-22T02:21:59.593Z,9.10
2023-01-22T02:24:31.154Z,10.23
2023-01-22T02:26:59.206Z,10.47
2023-01-22T02:29:28.966Z,9.50
2023-01-22T02:31:56.870Z,10.33
2023-01-22T02:34:25.001Z,9.87
2023-01-22T02:36:53.188Z,10.50
2023-01-22T02:39:22.668Z,10.40
2023-01-22T02:41:50.723Z,9.47
2023-01-22T02:44:18.570Z,10.00
2023-01-22T02:46:46.404Z,10.10
2023-01-22T02:49:14.209Z,9.90
2023-01-22T02:51:42.049Z,10.03
2023-01-22T02:54:09.875Z,10.10
2023-01-22T02:56:39.190Z,9.27
2023-01-22T02:59:06.990Z,9.77
2023-01-22T03:01:34.800Z,9.20
2023-01-22T03:04:10.688Z,9.80
2023-01-22T03:06:40.516Z,8.60
2023-01-22T03:09:09.120Z,9.87
2023-01-22T03:11:39.907Z,9.20
2023-01-22T03:14:25.599Z,7.77
2023-01-22T03:17:11.636Z,8.37
2023-01-22T03:19:57.108Z,8.83
2023-01-22T03:22:25.082Z,9.67
2023-01-22T03:24:53.057Z,8.90
2023-01-22T03:27:24.198Z,9.07
2023-01-22T03:29:52.156Z,9.17
2023-01-22T03:32:20.378Z,10.07
2023-01-22T03:34:48.301Z,9.40
2023-01-22T03:37:16.165Z,9.83
2023-01-22T03:39:44.106Z,9.60
2023-01-22T03:42:12.006Z,11.60
2023-01-22T03:44:41.134Z,10.63
2023-01-22T03:47:08.928Z,10.90
2023-01-22T03:49:36.745Z,11.53
2023-01-22T03:52:04.578Z,11.53
2023-01-22T03:54:32.389Z,12.47
2023-01-22T03:57:00.211Z,11.80
2023-01-22T03:59:28.008Z,10.77
2023-01-22T04:01:57.137Z,11.20
2023-01-22T04:04:25.066Z,11.37
2023-01-22T04:06:52.899Z,12.00
2023-01-22T04:09:20.696Z,11.90
2023-01-22T04:11:48.648Z,12.80
2023-01-22T04:14:16.565Z,12.63
2023-01-22T04:16:44.387Z,11.40
2023-01-22T04:19:14.665Z,12.13
2023-01-22T04:21:42.486Z,13.70
2023-01-22T04:24:10.392Z,11.30
2023-01-22T04:26:38.216Z,11.53
2023-01-22T04:29:05.996Z,10.87
2023-01-22T04:31:33.876Z,12.70
2023-01-22T04:34:01.724Z,12.87
2023-01-22T04:36:30.855Z,11.80
2023-01-22T04:38:58.691Z,12.20
2023-01-22T04:41:26.542Z,12.37
2023-01-22T04:43:54.399Z,12.90
2023-01-22T04:46:22.323Z,12.30
2023-01-22T04:48:50.194Z,13.17
2023-01-22T04:51:18.075Z,12.27
2023-01-22T04:53:47.314Z,12.80
2023-01-22T04:56:15.154Z,13.00
2023-01-22T04:58:42.934Z,12.47
2023-01-22T05:01:10.740Z,12.67
2023-01-22T05:03:38.554Z,11.97
2023-01-22T05:06:07.128Z,12.10
2023-01-22T05:08:34.936Z,14.37
2023-01-22T05:11:04.616Z,13.47
2023-01-22T05:13:32.387Z,12.97
2023-01-22T05:16:00.301Z,11.90
2023-01-22T05:18:28.271Z,12.60
2023-01-22T05:20:56.122Z,13.47
2023-01-22T05:23:24.031Z,13.13
2023-01-22T05:25:52.053Z,12.90
2023-01-22T05:28:21.235Z,13.70
2023-01-22T05:30:49.573Z,13.57
2023-01-22T05:33:17.518Z,13.03
2023-01-22T05:35:45.341Z,13.83
2023-01-22T05:38:13.104Z,13.10
2023-01-22T05:40:40.947Z,13.60
2023-01-22T05:43:08.748Z,13.17
2023-01-22T05:45:37.890Z,13.73
2023-01-22T05:48:05.943Z,12.70
2023-01-22T05:50:33.805Z,14.13
2023-01-22T05:53:01.625Z,13.50
2023-01-22T05:55:29.722Z,14.10
2023-01-22T05:57:57.522Z,13.57
2023-01-22T06:00:25.317Z,13.60
2023-01-22T06:02:57.976Z,13.17
2023-01-22T06:05:25.977Z,12.77
2023-01-22T06:07:53.903Z,12.83
2023-01-22T06:10:21.735Z,13.53
2023-01-22T06:12:49.576Z,12.47
2023-01-22T06:15:17.823Z,11.70
2023-01-22T06:17:45.657Z,12.53
2023-01-22T06:20:14.895Z,13.60
2023-01-22T06:22:42.703Z,11.67
2023-01-22T06:25:10.770Z,11.70
2023-01-22T06:27:38.598Z,12.73
2023-01-22T06:30:07.638Z,12.83
2023-01-22T06:32:35.437Z,13.43
2023-01-22T06:35:03.233Z,11.97
2023-01-22T06:37:32.359Z,12.63
2023-01-22T06:40:00.198Z,13.70
2023-01-22T06:42:27.999Z,13.07
2023-01-22T06:44:55.755Z,11.47
2023-01-22T06:47:23.628Z,12.50
2023-01-22T06:49:51.443Z,12.40
2023-01-22T06:52:19.287Z,10.90
2023-01-22T06:54:48.439Z,12.73
2023-01-22T06:57:16.275Z,11.90
2023-01-22T06:59:44.044Z,11.10
2023-01-22T07:02:17.479Z,12.03
2023-01-22T07:04:45.523Z,13.57
2023-01-22T07:07:13.858Z,12.23
2023-01-22T07:09:42.033Z,13.40
2023-01-22T07:12:11.181Z,12.00
2023-01-22T07:14:38.945Z,12.30
2023-01-22T07:17:06.832Z,12.63
2023-01-22T07:19:34.706Z,11.57
2023-01-22T07:22:02.563Z,12.70
2023-01-22T07:24:30.356Z,12.60
2023-01-22T07:26:58.138Z,11.03
2023-01-22T07:29:27.329Z,12.10
2023-01-22T07:31:55.323Z,12.17
2023-01-22T07:34:23.411Z,11.83
2023-01-22T07:36:51.268Z,12.40
2023-01-22T07:39:19.307Z,12.80
2023-01-22T07:41:47.098Z,11.83
2023-01-22T07:44:15.495Z,11.27
2023-01-22T07:46:44.663Z,12.27
2023-01-22T07:49:12.700Z,11.63
2023-01-22T07:51:40.506Z,12.00
2023-01-22T07:54:08.292Z,12.33
2023-01-22T07:56:36.090Z,12.00
2023-01-22T07:59:03.870Z,12.87
2023-01-22T08:01:31.650Z,12.67
2023-01-22T08:04:00.796Z,12.60
2023-01-22T08:06:28.578Z,12.70
2023-01-22T08:08:56.366Z,12.73
2023-01-22T08:11:24.168Z,13.10
2023-01-22T08:13:52.107Z,12.50
2023-01-22T08:16:19.981Z,13.20
2023-01-22T08:18:47.935Z,14.83
2023-01-22T08:21:17.149Z,14.57
2023-01-22T08:23:47.606Z,13.10
2023-01-22T08:26:16.999Z,12.17
2023-01-22T08:28:44.785Z,12.10
2023-01-22T08:31:26.355Z,12.20
2023-01-22T08:33:55.071Z,11.87
2023-01-22T08:36:24.252Z,11.90
2023-01-22T08:38:52.041Z,11.00
2023-01-22T08:41:19.868Z,12.20
2023-01-22T08:43:47.685Z,10.90
2023-01-22T08:46:15.542Z,12.10
2023-01-22T08:48:44.253Z,11.90
2023-01-22T08:51:12.379Z,11.50
2023-01-22T08:53:41.645Z,11.70
2023-01-22T08:56:09.919Z,11.07
2023-01-22T08:58:37.841Z,12.60
2023-01-22T09:01:05.937Z,11.70
2023-01-22T09:03:33.821Z,12.73
2023-01-22T09:06:01.644Z,12.10
2023-01-22T09:08:29.443Z,13.73
2023-01-22T09:10:58.633Z,12.80
2023-01-22T09:13:26.459Z,12.77
2023-01-22T09:15:58.591Z,12.47
2023-01-22T09:18:26.669Z,13.23
2023-01-22T09:20:54.468Z,11.87
2023-01-22T09:23:22.510Z,11.50
2023-01-22T09:25:50.303Z,11.83
2023-01-22T09:28:19.502Z,11.03
2023-01-22T09:30:47.394Z,12.47
2023-01-22T09:33:15.192Z,11.70
2023-01-22T09:35:43.013Z,12.27
2023-01-22T09:38:14.026Z,11.83
2023-01-22T09:40:46.535Z,12.23
2023-01-22T09:43:26.303Z,11.87
2023-01-22T09:45:56.899Z,11.93
2023-01-22T09:48:35.708Z,11.83
2023-01-22T09:51:03.980Z,12.60
2023-01-22T09:53:32.181Z,12.03
2023-01-22T09:56:00.794Z,13.00
2023-01-22T09:58:30.092Z,12.37
2023-01-22T10:01:01.896Z,11.90
2023-01-22T10:03:34.173Z,11.77
2023-01-22T10:06:05.919Z,13.30
2023-01-22T10:08:38.798Z,13.30
2023-01-22T10:11:10.182Z,13.20
2023-01-22T10:13:40.711Z,11.63
2023-01-22T10:16:08.791Z,12.53
2023-01-22T10:18:43.060Z,12.20
2023-01-22T10:21:19.748Z,12.20
2023-01-22T10:23:48.860Z,11.40
2023-01-22T10:26:19.597Z,11.63
2023-01-22T10:28:50.929Z,11.07
2023-01-22T10:31:24.210Z,12.07
2023-01-22T10:33:58.574Z,11.60
2023-01-22T10:36:26.763Z,11.00
2023-01-22T10:39:07.986Z,11.53
2023-01-22T10:41:35.793Z,10.87
2023-01-22T10:44:22.640Z,11.77
2023-01-22T10:46:51.513Z,10.60
2023-01-22T10:49:21.944Z,11.20
2023-01-22T10:51:55.351Z,11.80
2023-01-22T10:54:27.067Z,11.60
2023-01-22T10:57:05.610Z,12.03
2023-01-22T10:59:35.421Z,11.00
2023-01-22T11:02:17.702Z,10.80
2023-01-22T11:04:45.552Z,10.83
2023-01-22T11:07:18.509Z,11.67
2023-01-22T11:09:50.339Z,11.40
2023-01-22T11:12:23.156Z,12.17
2023-01-22T11:15:01.733Z,12.83
2023-01-22T11:17:35.146Z,11.13
2023-01-22T11:20:12.252Z,11.90
2023-01-22T11:22:44.287Z,11.90
2023-01-22T11:25:13.015Z,11.63
2023-01-22T11:27:58.644Z,11.50
2023-01-22T11:30:46.674Z,12.20
2023-01-22T11:33:33.314Z,12.03
2023-01-22T11:36:05.301Z,11.67
2023-01-22T11:38:41.485Z,11.53
2023-01-22T11:41:22.095Z,10.03
2023-01-22T11:44:37.559Z,11.07
2023-01-22T11:47:25.420Z,11.60
2023-01-22T11:50:05.462Z,12.67
2023-01-22T11:52:45.106Z,11.27
2023-01-22T11:55:26.357Z,11.23
2023-01-22T11:58:05.159Z,11.43
2023-01-22T12:00:44.408Z,11.17
2023-01-22T12:03:56.189Z,11.37
2023-01-22T12:06:55.975Z,10.47
2023-01-22T12:09:28.956Z,10.87
2023-01-22T12:12:06.828Z,12.60
2023-01-22T12:14:51.463Z,12.23
2023-01-22T12:17:33.983Z,13.90
2023-01-22T12:20:33.206Z,13.00
2023-01-22T12:23:06.331Z,12.10
2023-01-22T12:25:42.306Z,11.17
2023-01-22T12:28:16.462Z,11.43
2023-01-22T12:30:49.811Z,11.13
2023-01-22T12:33:21.876Z,10.50
2023-01-22T12:35:53.183Z,10.53
2023-01-22T12:38:32.204Z,11.37
2023-01-22T12:41:16.127Z,11.90
2023-01-22T12:43:51.586Z,11.73
2023-01-22T12:46:28.095Z,11.33
2023-01-22T12:49:02.975Z,11.57
2023-01-22T12:51:39.919Z,12.10
2023-01-22T12:54:30.376Z,11.10
2023-01-22T12:57:10.402Z,11.57
2023-01-22T12:59:47.326Z,11.17
2023-01-22T13:02:38.873Z,11.60
2023-01-22T13:05:22.627Z,11.53
2023-01-22T13:08:03.810Z,11.40
2023-01-22T13:10:34.861Z,11.33
2023-01-22T13:13:05.562Z,10.63
2023-01-22T13:15:37.183Z,10.40
2023-01-22T13:18:08.109Z,10.53
2023-01-22T13:20:37.773Z,10.93
2023-01-22T13:23:08.393Z,10.43
2023-01-22T13:25:36.221Z,11.53
2023-01-22T13:28:04.088Z,10.50
2023-01-22T13:30:32.005Z,10.13
2023-01-22T13:33:08.405Z,11.47
2023-01-22T13:35:37.649Z,10.83
2023-01-22T13:38:07.631Z,11.00
2023-01-22T13:40:50.268Z,11.37
2023-01-22T13:43:22.743Z,10.70
2023-01-22T13:45:51.787Z,10.63
2023-01-22T13:48:23.024Z,9.90
2023-01-22T13:50:55.719Z,9.10
2023-01-22T13:53:29.423Z,9.23
2023-01-22T13:55:57.933Z,8.97
2023-01-22T13:58:47.920Z,9.73
2023-01-22T14:01:29.387Z,8.87
2023-01-22T14:04:01.349Z,9.80
2023-01-22T14:06:30.181Z,9.27
2023-01-22T14:08:59.522Z,11.10
2023-01-22T14:11:38.381Z,10.30
2023-01-22T14:14:16.856Z,9.17
2023-01-22T14:16:44.836Z,9.20
2023-01-22T14:19:12.884Z,9.47
2023-01-22T14:21:40.727Z,9.07
2023-01-22T14:24:10.199Z,9.67
2023-01-22T14:26:38.113Z,8.73
2023-01-22T14:29:06.002Z,9.47
2023-01-22T14:31:33.864Z,9.07
2023-01-22T14:34:01.695Z,9.17
2023-01-22T14:36:29.487Z,9.33
2023-01-22T14:38:57.733Z,9.07
2023-01-22T14:41:26.984Z,9.40
2023-01-22T14:43:54.975Z,10.33
2023-01-22T14:46:22.762Z,10.00
2023-01-22T14:48:50.562Z,9.37
2023-01-22T14:51:18.408Z,9.40
2023-01-22T14:53:46.237Z,8.97
2023-01-22T14:56:14.404Z,9.37
2023-01-22T14:58:43.517Z,10.47
2023-01-22T15:01:18.320Z,10.07
2023-01-22T15:03:46.146Z,9.57
2023-01-22T15:06:14.039Z,9.23
2023-01-22T15:08:41.826Z,9.00
2023-01-22T15:11:09.641Z,10.30
2023-01-22T15:13:37.521Z,9.27
2023-01-22T15:16:08.404Z,9.23
2023-01-22T15:18:36.265Z,9.50
2023-01-22T15:21:04.967Z,9.50
2023-01-22T15:23:33.125Z,9.63
2023-01-22T15:26:02.503Z,9.03
2023-01-22T15:28:30.329Z,9.50
2023-01-22T15:31:07.494Z,9.00
2023-01-22T15:33:37.235Z,8.93
2023-01-22T15:36:06.254Z,8.00
2023-01-22T15:38:34.162Z,9.17
2023-01-22T15:41:06.723Z,9.97
2023-01-22T15:43:34.835Z,9.40
2023-01-22T15:46:02.720Z,10.23
2023-01-22T15:48:30.542Z,10.33
2023-01-22T15:51:08.668Z,10.20
2023-01-22T15:53:36.588Z,10.00
2023-01-22T15:56:04.964Z,9.50
2023-01-22T15:58:33.441Z,10.10
2023-01-22T16:01:01.288Z,10.40
2023-01-22T16:03:29.174Z,9.20
2023-01-22T16:05:56.961Z,11.10
2023-01-22T16:08:26.139Z,11.30
2023-01-22T16:10:53.920Z,9.83
2023-01-22T16:13:21.702Z,9.73
2023-01-22T16:15:57.830Z,9.90
2023-01-22T16:18:25.690Z,10.57
2023-01-22T16:20:53.540Z,10.10
2023-01-22T16:23:21.479Z,9.87
2023-01-22T16:25:50.599Z,10.00
2023-01-22T16:28:18.384Z,10.30
2023-01-22T16:30:46.216Z,10.17
2023-01-22T16:33:20.765Z,11.43
2023-01-22T16:35:48.733Z,12.70
2023-01-22T16:38:16.505Z,11.10
2023-01-22T16:40:44.395Z,10.60
2023-01-22T16:43:13.512Z,10.90
2023-01-22T16:45:41.299Z,10.80
2023-01-22T16:48:09.094Z,10.60
2023-01-22T16:50:36.906Z,11.13
2023-01-22T16:53:04.767Z,11.33
2023-01-22T16:55:32.538Z,11.30
2023-01-22T16:58:00.825Z,11.30
2023-01-22T17:00:29.991Z,11.33
2023-01-22T17:02:59.874Z,11.43
2023-01-22T17:05:27.646Z,11.47
2023-01-22T17:07:55.459Z,13.20
2023-01-22T17:10:23.294Z,12.47
2023-01-22T17:12:51.095Z,11.73
2023-01-22T17:15:19.240Z,11.30
2023-01-22T17:17:48.384Z,11.23
2023-01-22T17:20:16.369Z,9.80
2023-01-22T17:22:44.211Z,10.97
2023-01-22T17:25:13.497Z,15.13
2023-01-22T17:27:41.308Z,12.60
2023-01-22T17:30:11.019Z,10.90
2023-01-22T17:32:38.885Z,10.73
2023-01-22T17:35:09.860Z,12.13
2023-01-22T17:37:37.832Z,12.20
2023-01-22T17:40:06.784Z,10.87
2023-01-22T17:42:34.628Z,12.90
2023-01-22T17:45:02.595Z,13.37
2023-01-22T17:47:30.416Z,11.87
2023-01-22T17:49:58.225Z,12.00
2023-01-22T17:52:27.385Z,12.00
2023-01-22T17:54:55.334Z,12.80
2023-01-22T17:57:23.285Z,11.80
2023-01-22T17:59:51.332Z,11.27
2023-01-22T18:02:19.341Z,13.00
2023-01-22T18:04:47.296Z,12.00
2023-01-22T18:07:15.356Z,11.40
2023-01-22T18:09:44.482Z,10.30
2023-01-22T18:12:12.250Z,10.80
2023-01-22T18:14:40.797Z,11.70
2023-01-22T18:17:08.611Z,11.93
2023-01-22T18:19:36.419Z,11.77
2023-01-22T18:22:04.237Z,12.37
2023-01-22T18:24:34.127Z,11.43
2023-01-22T18:27:03.318Z,11.23
2023-01-22T18:29:31.100Z,11.50
2023-01-22T18:31:59.067Z,12.40
2023-01-22T18:34:26.897Z,22.80
2023-01-22T18:36:54.745Z,18.80
2023-01-22T18:39:23.238Z,14.10
2023-01-22T18:41:51.029Z,12.77
2023-01-22T18:44:21.456Z,12.17
2023-01-22T18:46:51.785Z,12.73
2023-01-22T18:49:20.343Z,13.17
2023-01-22T18:51:48.228Z,13.87
2023-01-22T18:54:17.015Z,12.40
2023-01-22T18:56:45.106Z,11.10
2023-01-22T18:59:13.115Z,12.50
2023-01-22T19:01:49.909Z,12.50
2023-01-22T19:04:20.719Z,12.47
2023-01-22T19:06:51.856Z,12.87
2023-01-22T19:09:20.210Z,13.33
2023-01-22T19:11:52.100Z,12.73
2023-01-22T19:14:21.570Z,13.77
2023-01-22T19:16:53.693Z,12.30
2023-01-22T19:19:22.694Z,12.87
2023-01-22T19:21:53.134Z,13.80
2023-01-22T19:24:24.915Z,13.63
2023-01-22T19:26:54.759Z,14.43
2023-01-22T19:29:25.205Z,13.20
2023-01-22T19:31:56.273Z,13.73
2023-01-22T19:34:25.319Z,13.60
2023-01-22T19:36:54.536Z,12.50
2023-01-22T19:39:22.725Z,14.73
2023-01-22T19:41:50.606Z,14.23
2023-01-22T19:44:18.727Z,12.97
2023-01-22T19:46:46.563Z,14.60
2023-01-22T19:49:15.757Z,13.50
2023-01-22T19:51:43.617Z,13.30
2023-01-22T19:54:11.597Z,12.47
2023-01-22T19:56:40.804Z,13.23
2023-01-22T19:59:11.987Z,14.67
2023-01-22T20:01:40.525Z,13.00
2023-01-22T20:04:12.489Z,13.60
2023-01-22T20:06:41.675Z,15.03
2023-01-22T20:09:10.428Z,15.67
2023-01-22T20:11:38.746Z,15.10
2023-01-22T20:14:06.551Z,15.63
2023-01-22T20:16:34.510Z,14.10
2023-01-22T20:19:02.290Z,15.60
2023-01-22T20:21:30.855Z,14.97
2023-01-22T20:24:00.151Z,15.00
2023-01-22T20:26:28.028Z,13.80
2023-01-22T20:28:55.819Z,14.57
2023-01-22T20:31:24.862Z,14.73
2023-01-22T20:33:53.395Z,14.80
2023-01-22T20:36:22.624Z,13.13
2023-01-22T20:38:53.145Z,14.50
2023-01-22T20:41:23.690Z,14.13
2023-01-22T20:43:53.784Z,13.70
2023-01-22T20:46:23.266Z,14.70
2023-01-22T20:48:51.491Z,13.97
2023-01-22T20:51:21.042Z,14.17
2023-01-22T20:53:50.225Z,14.07
2023-01-22T20:56:21.021Z,13.00
2023-01-22T20:58:55.049Z,13.53
2023-01-22T21:01:22.907Z,13.73
2023-01-22T21:03:50.680Z,13.97
2023-01-22T21:06:20.478Z,13.60
2023-01-22T21:08:51.419Z,14.33
2023-01-22T21:11:20.930Z,14.60
2023-01-22T21:13:52.406Z,15.47
2023-01-22T21:16:23.188Z,14.90
2023-01-22T21:18:51.080Z,13.57
2023-01-22T21:21:20.830Z,13.57
2023-01-22T21:23:50.043Z,13.50
2023-01-22T21:26:19.749Z,14.40
2023-01-22T21:28:48.167Z,14.93
2023-01-22T21:31:19.209Z,15.77
2023-01-22T21:33:48.559Z,14.03
2023-01-22T21:36:19.482Z,13.53
2023-01-22T21:38:47.897Z,14.77
2023-01-22T21:41:18.276Z,14.83
2023-01-22T21:44:04.830Z,16.90
2023-01-22T21:46:37.167Z,14.03
2023-01-22T21:49:16.200Z,13.60
2023-01-22T21:51:45.983Z,14.83
2023-01-22T21:54:14.956Z,14.70
2023-01-22T21:56:42.917Z,14.90
2023-01-22T21:59:11.345Z,15.03
2023-01-22T22:01:41.209Z,15.50
2023-01-22T22:04:09.812Z,15.53
2023-01-22T22:06:38.059Z,14.20
2023-01-22T22:09:08.750Z,15.37
2023-01-22T22:11:36.551Z,16.00
2023-01-22T22:14:05.682Z,15.53
2023-01-22T22:16:33.866Z,14.90
2023-01-22T22:19:03.010Z,16.07
2023-01-22T22:21:30.848Z,18.47
2023-01-22T22:23:58.972Z,15.90
2023-01-22T22:26:27.115Z,15.90
2023-01-22T22:28:55.159Z,15.37
2023-01-22T22:31:23.088Z,15.73
2023-01-22T22:33:52.765Z,14.93
2023-01-22T22:36:23.595Z,16.47
2023-01-22T22:38:51.899Z,15.40
2023-01-22T22:41:22.146Z,16.30
2023-01-22T22:43:52.691Z,15.00
2023-01-22T22:46:21.989Z,15.33
2023-01-22T22:48:50.735Z,15.60
2023-01-22T22:51:21.417Z,15.60
2023-01-22T22:53:53.959Z,14.80
2023-01-22T22:56:22.181Z,15.13
2023-01-22T22:58:50.101Z,14.43
2023-01-22T23:01:20.172Z,14.90
2023-01-22T23:03:48.244Z,14.53
2023-01-22T23:06:17.934Z,14.60
2023-01-22T23:08:48.203Z,14.57
2023-01-22T23:11:17.396Z,15.20
2023-01-22T23:13:46.868Z,15.73
2023-01-22T23:16:18.169Z,14.33
2023-01-22T23:18:47.202Z,14.50
2023-01-22T23:21:16.638Z,13.03
2023-01-22T23:23:45.280Z,14.30
2023-01-22T23:26:15.065Z,14.70
2023-01-22T23:28:44.947Z,15.23
2023-01-22T23:31:15.673Z,15.10
2023-01-22T23:33:44.373Z,15.00
2023-01-22T23:36:14.165Z,14.60
2023-01-22T23:38:42.623Z,15.77
2023-01-22T23:41:12.370Z,14.50
2023-01-22T23:43:40.202Z,13.70
2023-01-22T23:46:10.729Z,15.13
2023-01-22T23:48:39.019Z,15.63
2023-01-22T23:51:08.342Z,13.93
2023-01-22T23:53:37.566Z,14.93
2023-01-22T23:56:06.230Z,16.03
2023-01-22T23:58:35.096Z,15.33
